Housatonic, MA

1:11 PM EST on January 29, 2015 (GMT -0500)
APRSWXNET Great Barrington MA US | Change Station
CLOSE
Current Station
Personal Weather Station
Location: Simons Rock, MA
Elevation: 698 ft
Nearby Weather Stations

Elev 698 ft 42.21 °N, 73.34 °W | Updated 44 minutes ago

Clear
Clear
28 °F
Feels Like 28 °F
N
1
Wind Variable Wind from West
Gusts 3.0 mph

Today
High -- | Low -- °F
--% Chance of Precip.
Yesterday
High -- | Low -- °F
Precip. -- in
7:10 AM 5:03 PM
Waxing Gibbous, 76% visible
Pressure 30.17 in
Visibility 10.0 miles
Clouds Clear
Windchill 28 °F
Dew Point 7 °F
Humidity 41%
Rainfall 0.01 in
Snow Depth Not available.
UV 3 out of 12
Pollen .10 out of 12
Air Quality Not available.
Flu Activity Not available.
METAR KPSF 291754Z AUTO 00000KT 10SM CLR M02/M17 A3010 RMK AO2 SLP216 T10171172 11017 21211 58035

More Conditions Fewer Conditions

Pressure 30.17 in
Visibility 10.0 miles
Clouds Clear
Windchill 28 °F
Dew Point 7 °F
Humidity 41%
Rainfall 0.01 in
Snow Depth Not available.
UV 3 out of 12
Pollen .10 out of 12
Air Quality Not available.
Flu Activity Not available.
METAR KPSF 291754Z AUTO 00000KT 10SM CLR M02/M17 A3010 RMK AO2 SLP216 T10171172 11017 21211 58035

More Conditions Fewer Conditions

10-Day Weather Forecast

Almanac

Astronomy

Jan. 29, 2015 Rise Set
Actual Time
Civil Twilight
Nautical Twilight
Astronomical Twilight
Moon
Length of Visible Light
Length of Day
Tomorrow will be .
, % of the Moon is Illuminated

Today's Extremes

State Highs State Lows

Community

WunderPhotos

Upload Photos

1,791,512 photos uploaded!

WunderBlogs® & News

Nearby

Air Quality

  Air Quality AQ Index Pollutant
Not available.

Snow Depth

Station Depth Elevation

Earthquake Activity

City Distance Mag. Time & Date
Minimum magnitude displayed is 2.5.

Coastal Water Temperatures

Place Temperature

Nearby Weather Stations